sensor_id;sensor_type;location;lat;lon;timestamp;P1;durP1;ratioP1;P2;durP2;ratioP2
13797;SDS011;6970;51.340;3.240;2023-04-24T00:00:48;3.13;;;0.80;;
13797;SDS011;6970;51.340;3.240;2023-04-24T00:03:18;3.50;;;1.10;;
13797;SDS011;6970;51.340;3.240;2023-04-24T00:05:47;4.83;;;1.00;;
13797;SDS011;6970;51.340;3.240;2023-04-24T00:08:14;3.93;;;1.17;;
13797;SDS011;6970;51.340;3.240;2023-04-24T00:10:42;10.90;;;1.70;;
13797;SDS011;6970;51.340;3.240;2023-04-24T00:13:10;5.13;;;1.33;;
13797;SDS011;6970;51.340;3.240;2023-04-24T00:15:38;5.77;;;1.63;;
13797;SDS011;6970;51.340;3.240;2023-04-24T00:18:08;5.30;;;1.73;;
13797;SDS011;6970;51.340;3.240;2023-04-24T00:20:36;5.43;;;2.03;;
13797;SDS011;6970;51.340;3.240;2023-04-24T00:23:03;4.93;;;1.83;;
13797;SDS011;6970;51.340;3.240;2023-04-24T00:25:38;2.37;;;1.63;;
13797;SDS011;6970;51.340;3.240;2023-04-24T00:28:06;4.57;;;1.63;;
13797;SDS011;6970;51.340;3.240;2023-04-24T00:30:36;7.07;;;2.77;;
13797;SDS011;6970;51.340;3.240;2023-04-24T00:35:33;6.77;;;3.00;;
13797;SDS011;6970;51.340;3.240;2023-04-24T00:38:01;6.40;;;3.97;;
13797;SDS011;6970;51.340;3.240;2023-04-24T00:40:32;8.90;;;4.63;;
13797;SDS011;6970;51.340;3.240;2023-04-24T00:43:08;9.80;;;5.90;;
13797;SDS011;6970;51.340;3.240;2023-04-24T00:45:36;14.80;;;7.97;;
13797;SDS011;6970;51.340;3.240;2023-04-24T00:48:03;26.63;;;9.43;;
13797;SDS011;6970;51.340;3.240;2023-04-24T00:50:30;21.67;;;10.20;;
13797;SDS011;6970;51.340;3.240;2023-04-24T00:52:59;12.87;;;9.33;;
13797;SDS011;6970;51.340;3.240;2023-04-24T00:57:59;18.17;;;11.30;;
13797;SDS011;6970;51.340;3.240;2023-04-24T01:00:26;21.47;;;13.07;;
13797;SDS011;6970;51.340;3.240;2023-04-24T01:02:54;25.03;;;14.03;;
13797;SDS011;6970;51.340;3.240;2023-04-24T01:05:29;20.87;;;13.23;;
13797;SDS011;6970;51.340;3.240;2023-04-24T01:07:57;16.63;;;9.67;;
13797;SDS011;6970;51.340;3.240;2023-04-24T01:10:26;7.90;;;4.37;;
13797;SDS011;6970;51.340;3.240;2023-04-24T01:15:27;5.63;;;2.40;;
13797;SDS011;6970;51.340;3.240;2023-04-24T01:17:55;8.33;;;2.30;;
13797;SDS011;6970;51.340;3.240;2023-04-24T01:20:24;7.03;;;2.33;;
13797;SDS011;6970;51.340;3.240;2023-04-24T01:22:54;5.03;;;2.33;;
13797;SDS011;6970;51.340;3.240;2023-04-24T01:27:53;7.20;;;2.50;;
13797;SDS011;6970;51.340;3.240;2023-04-24T01:30:22;7.27;;;2.63;;
13797;SDS011;6970;51.340;3.240;2023-04-24T01:32:49;10.17;;;2.97;;
13797;SDS011;6970;51.340;3.240;2023-04-24T01:35:18;8.83;;;3.03;;
13797;SDS011;6970;51.340;3.240;2023-04-24T01:37:49;8.87;;;3.17;;
13797;SDS011;6970;51.340;3.240;2023-04-24T01:40:17;7.67;;;2.97;;
13797;SDS011;6970;51.340;3.240;2023-04-24T01:42:47;15.13;;;3.90;;
13797;SDS011;6970;51.340;3.240;2023-04-24T01:47:45;7.90;;;3.10;;
13797;SDS011;6970;51.340;3.240;2023-04-24T01:50:14;7.73;;;3.30;;
13797;SDS011;6970;51.340;3.240;2023-04-24T01:52:43;7.30;;;3.67;;
13797;SDS011;6970;51.340;3.240;2023-04-24T01:55:12;7.87;;;2.77;;
13797;SDS011;6970;51.340;3.240;2023-04-24T01:57:41;6.83;;;3.50;;
13797;SDS011;6970;51.340;3.240;2023-04-24T02:00:08;7.93;;;3.30;;
13797;SDS011;6970;51.340;3.240;2023-04-24T02:02:39;11.63;;;4.00;;
13797;SDS011;6970;51.340;3.240;2023-04-24T02:05:10;5.87;;;3.50;;
13797;SDS011;6970;51.340;3.240;2023-04-24T02:10:07;9.43;;;3.93;;
13797;SDS011;6970;51.340;3.240;2023-04-24T02:12:36;6.60;;;3.83;;
13797;SDS011;6970;51.340;3.240;2023-04-24T02:15:04;8.47;;;4.17;;
13797;SDS011;6970;51.340;3.240;2023-04-24T02:22:35;13.13;;;6.20;;
13797;SDS011;6970;51.340;3.240;2023-04-24T02:25:04;13.33;;;6.83;;
13797;SDS011;6970;51.340;3.240;2023-04-24T02:30:03;11.13;;;5.83;;
13797;SDS011;6970;51.340;3.240;2023-04-24T02:35:01;9.20;;;7.10;;
13797;SDS011;6970;51.340;3.240;2023-04-24T02:37:28;18.43;;;6.80;;
13797;SDS011;6970;51.340;3.240;2023-04-24T02:42:26;14.10;;;8.13;;
13797;SDS011;6970;51.340;3.240;2023-04-24T02:49:57;11.17;;;6.90;;
13797;SDS011;6970;51.340;3.240;2023-04-24T02:54:56;10.83;;;5.77;;
13797;SDS011;6970;51.340;3.240;2023-04-24T02:57:23;15.70;;;7.10;;
13797;SDS011;6970;51.340;3.240;2023-04-24T02:59:54;15.70;;;6.20;;
13797;SDS011;6970;51.340;3.240;2023-04-24T03:02:24;10.47;;;6.20;;
13797;SDS011;6970;51.340;3.240;2023-04-24T03:07:22;10.97;;;6.00;;
13797;SDS011;6970;51.340;3.240;2023-04-24T03:09:52;14.17;;;5.93;;
13797;SDS011;6970;51.340;3.240;2023-04-24T03:12:19;13.83;;;6.77;;
13797;SDS011;6970;51.340;3.240;2023-04-24T03:14:48;12.67;;;6.50;;
13797;SDS011;6970;51.340;3.240;2023-04-24T03:17:18;9.70;;;5.83;;
13797;SDS011;6970;51.340;3.240;2023-04-24T03:22:16;14.90;;;6.93;;
13797;SDS011;6970;51.340;3.240;2023-04-24T03:24:46;15.30;;;7.80;;
13797;SDS011;6970;51.340;3.240;2023-04-24T03:27:14;16.10;;;6.83;;
13797;SDS011;6970;51.340;3.240;2023-04-24T03:29:43;14.40;;;6.57;;
13797;SDS011;6970;51.340;3.240;2023-04-24T03:32:26;19.90;;;7.90;;
13797;SDS011;6970;51.340;3.240;2023-04-24T03:34:57;16.93;;;7.43;;
13797;SDS011;6970;51.340;3.240;2023-04-24T03:37:24;14.40;;;7.53;;
13797;SDS011;6970;51.340;3.240;2023-04-24T03:39:55;14.40;;;7.73;;
13797;SDS011;6970;51.340;3.240;2023-04-24T03:42:22;18.40;;;7.63;;
13797;SDS011;6970;51.340;3.240;2023-04-24T03:44:53;14.60;;;8.53;;
13797;SDS011;6970;51.340;3.240;2023-04-24T03:47:21;12.60;;;7.10;;
13797;SDS011;6970;51.340;3.240;2023-04-24T03:49:48;21.67;;;7.30;;
13797;SDS011;6970;51.340;3.240;2023-04-24T03:54:45;13.17;;;7.30;;
13797;SDS011;6970;51.340;3.240;2023-04-24T03:57:18;14.23;;;6.97;;
13797;SDS011;6970;51.340;3.240;2023-04-24T03:59:45;16.57;;;7.90;;
13797;SDS011;6970;51.340;3.240;2023-04-24T04:02:12;13.80;;;7.63;;
13797;SDS011;6970;51.340;3.240;2023-04-24T04:04:39;17.47;;;8.23;;
13797;SDS011;6970;51.340;3.240;2023-04-24T04:07:06;16.47;;;8.07;;
13797;SDS011;6970;51.340;3.240;2023-04-24T04:09:36;13.80;;;7.87;;
13797;SDS011;6970;51.340;3.240;2023-04-24T04:12:03;13.37;;;9.03;;
13797;SDS011;6970;51.340;3.240;2023-04-24T04:14:39;16.67;;;8.87;;
13797;SDS011;6970;51.340;3.240;2023-04-24T04:17:06;17.90;;;8.87;;
13797;SDS011;6970;51.340;3.240;2023-04-24T04:19:36;24.07;;;10.37;;
13797;SDS011;6970;51.340;3.240;2023-04-24T04:22:05;22.63;;;9.13;;
13797;SDS011;6970;51.340;3.240;2023-04-24T04:27:10;19.10;;;8.70;;
13797;SDS011;6970;51.340;3.240;2023-04-24T04:29:38;16.37;;;9.43;;
13797;SDS011;6970;51.340;3.240;2023-04-24T04:42:10;18.23;;;10.27;;
13797;SDS011;6970;51.340;3.240;2023-04-24T04:44:37;14.27;;;8.60;;
13797;SDS011;6970;51.340;3.240;2023-04-24T04:47:04;17.43;;;9.53;;
13797;SDS011;6970;51.340;3.240;2023-04-24T04:57:03;16.57;;;8.33;;
13797;SDS011;6970;51.340;3.240;2023-04-24T04:59:30;13.90;;;8.53;;
13797;SDS011;6970;51.340;3.240;2023-04-24T05:02:00;15.27;;;7.37;;
13797;SDS011;6970;51.340;3.240;2023-04-24T05:04:33;10.77;;;7.17;;
13797;SDS011;6970;51.340;3.240;2023-04-24T05:07:01;18.03;;;7.57;;
13797;SDS011;6970;51.340;3.240;2023-04-24T05:09:28;16.33;;;8.07;;
13797;SDS011;6970;51.340;3.240;2023-04-24T05:11:57;21.93;;;8.57;;
13797;SDS011;6970;51.340;3.240;2023-04-24T05:14:28;20.83;;;8.50;;
13797;SDS011;6970;51.340;3.240;2023-04-24T05:16:55;15.67;;;6.83;;
13797;SDS011;6970;51.340;3.240;2023-04-24T05:19:22;12.60;;;6.00;;
13797;SDS011;6970;51.340;3.240;2023-04-24T05:21:49;17.37;;;5.97;;
13797;SDS011;6970;51.340;3.240;2023-04-24T05:24:17;13.50;;;5.90;;
13797;SDS011;6970;51.340;3.240;2023-04-24T05:29:31;11.13;;;5.07;;
13797;SDS011;6970;51.340;3.240;2023-04-24T05:34:29;17.37;;;5.57;;
13797;SDS011;6970;51.340;3.240;2023-04-24T05:39:30;14.03;;;5.47;;
13797;SDS011;6970;51.340;3.240;2023-04-24T05:44:30;13.03;;;5.70;;
13797;SDS011;6970;51.340;3.240;2023-04-24T05:46:57;15.73;;;5.83;;
13797;SDS011;6970;51.340;3.240;2023-04-24T05:49:25;15.90;;;5.10;;
13797;SDS011;6970;51.340;3.240;2023-04-24T05:51:54;14.70;;;5.50;;
13797;SDS011;6970;51.340;3.240;2023-04-24T05:54:23;11.20;;;6.00;;
13797;SDS011;6970;51.340;3.240;2023-04-24T05:56:51;11.67;;;5.30;;
13797;SDS011;6970;51.340;3.240;2023-04-24T05:59:20;11.97;;;4.50;;
13797;SDS011;6970;51.340;3.240;2023-04-24T06:01:48;9.13;;;4.07;;
13797;SDS011;6970;51.340;3.240;2023-04-24T06:04:15;11.07;;;3.93;;
13797;SDS011;6970;51.340;3.240;2023-04-24T06:06:46;13.90;;;5.20;;
13797;SDS011;6970;51.340;3.240;2023-04-24T06:09:23;12.07;;;4.33;;
13797;SDS011;6970;51.340;3.240;2023-04-24T06:11:51;8.53;;;3.73;;
13797;SDS011;6970;51.340;3.240;2023-04-24T06:14:25;14.83;;;5.50;;
13797;SDS011;6970;51.340;3.240;2023-04-24T06:16:53;8.23;;;4.00;;
13797;SDS011;6970;51.340;3.240;2023-04-24T06:19:21;10.83;;;3.40;;
13797;SDS011;6970;51.340;3.240;2023-04-24T06:24:19;12.23;;;3.63;;
13797;SDS011;6970;51.340;3.240;2023-04-24T06:26:48;14.17;;;4.73;;
13797;SDS011;6970;51.340;3.240;2023-04-24T06:29:18;11.67;;;3.77;;
13797;SDS011;6970;51.340;3.240;2023-04-24T06:34:16;7.37;;;3.80;;
13797;SDS011;6970;51.340;3.240;2023-04-24T06:36:46;15.53;;;3.77;;
13797;SDS011;6970;51.340;3.240;2023-04-24T06:39:13;9.83;;;3.07;;
13797;SDS011;6970;51.340;3.240;2023-04-24T06:41:42;13.03;;;3.60;;
13797;SDS011;6970;51.340;3.240;2023-04-24T06:44:10;6.37;;;2.80;;
13797;SDS011;6970;51.340;3.240;2023-04-24T06:46:40;11.40;;;3.67;;
13797;SDS011;6970;51.340;3.240;2023-04-24T06:49:14;10.60;;;3.87;;
13797;SDS011;6970;51.340;3.240;2023-04-24T06:51:44;9.47;;;3.47;;
13797;SDS011;6970;51.340;3.240;2023-04-24T06:54:12;5.33;;;2.57;;
13797;SDS011;6970;51.340;3.240;2023-04-24T06:59:11;11.83;;;3.77;;
13797;SDS011;6970;51.340;3.240;2023-04-24T07:04:11;21.57;;;5.03;;
13797;SDS011;6970;51.340;3.240;2023-04-24T07:06:44;8.70;;;5.03;;
13797;SDS011;6970;51.340;3.240;2023-04-24T07:09:12;11.33;;;4.93;;
13797;SDS011;6970;51.340;3.240;2023-04-24T07:11:45;12.30;;;4.97;;
13797;SDS011;6970;51.340;3.240;2023-04-24T07:14:12;16.10;;;4.90;;
13797;SDS011;6970;51.340;3.240;2023-04-24T07:16:40;13.17;;;4.73;;
13797;SDS011;6970;51.340;3.240;2023-04-24T07:19:11;12.63;;;4.40;;
13797;SDS011;6970;51.340;3.240;2023-04-24T07:21:39;9.57;;;3.50;;
13797;SDS011;6970;51.340;3.240;2023-04-24T07:24:09;9.40;;;3.47;;
13797;SDS011;6970;51.340;3.240;2023-04-24T07:29:08;11.80;;;3.80;;
13797;SDS011;6970;51.340;3.240;2023-04-24T07:31:36;11.90;;;3.80;;
13797;SDS011;6970;51.340;3.240;2023-04-24T07:34:04;11.47;;;3.60;;
13797;SDS011;6970;51.340;3.240;2023-04-24T07:36:31;8.63;;;2.77;;
13797;SDS011;6970;51.340;3.240;2023-04-24T07:38:58;6.83;;;3.50;;
13797;SDS011;6970;51.340;3.240;2023-04-24T07:41:26;9.13;;;3.40;;
13797;SDS011;6970;51.340;3.240;2023-04-24T07:43:54;7.50;;;3.37;;
13797;SDS011;6970;51.340;3.240;2023-04-24T07:46:21;9.10;;;3.20;;
13797;SDS011;6970;51.340;3.240;2023-04-24T07:48:49;7.33;;;3.00;;
13797;SDS011;6970;51.340;3.240;2023-04-24T07:51:34;10.37;;;4.03;;
13797;SDS011;6970;51.340;3.240;2023-04-24T07:54:04;5.77;;;3.50;;
13797;SDS011;6970;51.340;3.240;2023-04-24T07:56:32;8.63;;;3.10;;
13797;SDS011;6970;51.340;3.240;2023-04-24T07:59:00;6.67;;;3.00;;
13797;SDS011;6970;51.340;3.240;2023-04-24T08:01:27;12.23;;;2.97;;
13797;SDS011;6970;51.340;3.240;2023-04-24T08:03:55;8.50;;;3.00;;
13797;SDS011;6970;51.340;3.240;2023-04-24T08:06:26;8.57;;;3.10;;
13797;SDS011;6970;51.340;3.240;2023-04-24T08:08:59;8.87;;;3.47;;
13797;SDS011;6970;51.340;3.240;2023-04-24T08:11:27;5.47;;;2.83;;
13797;SDS011;6970;51.340;3.240;2023-04-24T08:13:57;8.57;;;2.60;;
13797;SDS011;6970;51.340;3.240;2023-04-24T08:16:27;13.43;;;3.50;;
13797;SDS011;6970;51.340;3.240;2023-04-24T08:19:01;10.60;;;3.10;;
13797;SDS011;6970;51.340;3.240;2023-04-24T08:21:31;7.60;;;2.87;;
13797;SDS011;6970;51.340;3.240;2023-04-24T08:23:58;7.77;;;2.83;;
13797;SDS011;6970;51.340;3.240;2023-04-24T08:26:29;9.67;;;3.90;;
13797;SDS011;6970;51.340;3.240;2023-04-24T08:28:59;8.33;;;2.70;;
13797;SDS011;6970;51.340;3.240;2023-04-24T08:31:26;6.53;;;2.90;;
13797;SDS011;6970;51.340;3.240;2023-04-24T08:33:54;6.53;;;2.20;;
13797;SDS011;6970;51.340;3.240;2023-04-24T08:36:23;6.43;;;2.80;;
13797;SDS011;6970;51.340;3.240;2023-04-24T08:39:12;6.43;;;2.70;;
13797;SDS011;6970;51.340;3.240;2023-04-24T08:44:12;5.77;;;2.23;;
13797;SDS011;6970;51.340;3.240;2023-04-24T08:46:46;4.73;;;2.50;;
13797;SDS011;6970;51.340;3.240;2023-04-24T08:49:15;7.70;;;3.03;;
13797;SDS011;6970;51.340;3.240;2023-04-24T08:51:45;8.90;;;2.97;;
13797;SDS011;6970;51.340;3.240;2023-04-24T08:54:14;8.93;;;3.10;;
13797;SDS011;6970;51.340;3.240;2023-04-24T08:56:41;7.60;;;2.30;;
13797;SDS011;6970;51.340;3.240;2023-04-24T08:59:11;7.30;;;2.30;;
13797;SDS011;6970;51.340;3.240;2023-04-24T09:01:39;12.03;;;2.47;;
13797;SDS011;6970;51.340;3.240;2023-04-24T09:04:07;5.20;;;2.30;;
13797;SDS011;6970;51.340;3.240;2023-04-24T09:06:41;4.73;;;2.27;;
13797;SDS011;6970;51.340;3.240;2023-04-24T09:09:09;7.23;;;2.67;;
13797;SDS011;6970;51.340;3.240;2023-04-24T09:11:38;4.97;;;2.07;;
13797;SDS011;6970;51.340;3.240;2023-04-24T09:14:05;4.20;;;2.00;;
13797;SDS011;6970;51.340;3.240;2023-04-24T09:16:42;6.10;;;2.27;;
13797;SDS011;6970;51.340;3.240;2023-04-24T09:19:11;7.63;;;2.20;;
13797;SDS011;6970;51.340;3.240;2023-04-24T09:21:39;6.07;;;1.53;;
13797;SDS011;6970;51.340;3.240;2023-04-24T09:24:18;6.07;;;1.90;;
13797;SDS011;6970;51.340;3.240;2023-04-24T09:29:30;4.17;;;1.33;;
13797;SDS011;6970;51.340;3.240;2023-04-24T09:32:04;5.23;;;1.73;;
13797;SDS011;6970;51.340;3.240;2023-04-24T09:40:19;5.23;;;1.90;;
13797;SDS011;6970;51.340;3.240;2023-04-24T09:42:54;4.90;;;1.60;;
13797;SDS011;6970;51.340;3.240;2023-04-24T09:45:27;3.70;;;1.40;;
13797;SDS011;6970;51.340;3.240;2023-04-24T09:48:01;3.50;;;1.60;;
13797;SDS011;6970;51.340;3.240;2023-04-24T09:53:06;5.97;;;1.50;;
13797;SDS011;6970;51.340;3.240;2023-04-24T09:55:39;4.53;;;1.40;;
13797;SDS011;6970;51.340;3.240;2023-04-24T09:58:11;5.00;;;1.60;;
13797;SDS011;6970;51.340;3.240;2023-04-24T10:00:41;3.53;;;1.60;;
13797;SDS011;6970;51.340;3.240;2023-04-24T10:03:08;3.80;;;1.43;;
13797;SDS011;6970;51.340;3.240;2023-04-24T10:05:36;5.80;;;2.07;;
13797;SDS011;6970;51.340;3.240;2023-04-24T10:08:05;3.70;;;1.50;;
13797;SDS011;6970;51.340;3.240;2023-04-24T10:10:35;5.27;;;1.70;;
13797;SDS011;6970;51.340;3.240;2023-04-24T10:13:05;5.93;;;1.77;;
13797;SDS011;6970;51.340;3.240;2023-04-24T10:15:35;4.10;;;1.30;;
13797;SDS011;6970;51.340;3.240;2023-04-24T10:18:04;3.73;;;1.40;;
13797;SDS011;6970;51.340;3.240;2023-04-24T10:20:39;4.27;;;1.27;;
13797;SDS011;6970;51.340;3.240;2023-04-24T10:23:07;5.40;;;2.00;;
13797;SDS011;6970;51.340;3.240;2023-04-24T10:25:37;3.57;;;1.40;;
13797;SDS011;6970;51.340;3.240;2023-04-24T10:28:06;5.00;;;1.90;;
13797;SDS011;6970;51.340;3.240;2023-04-24T10:30:39;4.77;;;1.70;;
13797;SDS011;6970;51.340;3.240;2023-04-24T10:33:12;5.50;;;1.70;;
13797;SDS011;6970;51.340;3.240;2023-04-24T10:35:42;3.47;;;1.87;;
13797;SDS011;6970;51.340;3.240;2023-04-24T10:38:12;7.17;;;2.17;;
13797;SDS011;6970;51.340;3.240;2023-04-24T10:40:46;4.07;;;1.70;;
13797;SDS011;6970;51.340;3.240;2023-04-24T10:48:35;4.57;;;1.47;;
13797;SDS011;6970;51.340;3.240;2023-04-24T10:51:04;3.33;;;1.47;;
13797;SDS011;6970;51.340;3.240;2023-04-24T10:53:34;5.43;;;1.37;;
13797;SDS011;6970;51.340;3.240;2023-04-24T10:56:08;2.20;;;1.07;;
13797;SDS011;6970;51.340;3.240;2023-04-24T10:58:44;2.27;;;1.30;;
13797;SDS011;6970;51.340;3.240;2023-04-24T11:01:26;2.53;;;1.50;;
13797;SDS011;6970;51.340;3.240;2023-04-24T11:03:55;6.90;;;1.83;;
13797;SDS011;6970;51.340;3.240;2023-04-24T11:06:28;2.60;;;1.50;;
13797;SDS011;6970;51.340;3.240;2023-04-24T11:09:05;2.30;;;1.40;;
13797;SDS011;6970;51.340;3.240;2023-04-24T11:14:07;5.00;;;1.30;;
13797;SDS011;6970;51.340;3.240;2023-04-24T11:19:24;3.73;;;1.47;;
13797;SDS011;6970;51.340;3.240;2023-04-24T11:22:02;3.07;;;1.30;;
13797;SDS011;6970;51.340;3.240;2023-04-24T11:27:32;3.30;;;1.17;;
13797;SDS011;6970;51.340;3.240;2023-04-24T11:30:19;2.57;;;1.20;;
13797;SDS011;6970;51.340;3.240;2023-04-24T11:32:50;2.77;;;1.10;;
13797;SDS011;6970;51.340;3.240;2023-04-24T11:35:21;2.37;;;1.50;;
13797;SDS011;6970;51.340;3.240;2023-04-24T11:38:00;4.33;;;1.60;;
13797;SDS011;6970;51.340;3.240;2023-04-24T11:40:49;3.47;;;1.20;;
13797;SDS011;6970;51.340;3.240;2023-04-24T11:45:49;4.37;;;2.23;;
13797;SDS011;6970;51.340;3.240;2023-04-24T11:48:20;3.73;;;1.23;;
13797;SDS011;6970;51.340;3.240;2023-04-24T11:50:52;4.50;;;1.33;;
13797;SDS011;6970;51.340;3.240;2023-04-24T11:53:22;2.83;;;1.37;;
13797;SDS011;6970;51.340;3.240;2023-04-24T11:55:50;2.90;;;1.00;;
13797;SDS011;6970;51.340;3.240;2023-04-24T11:58:20;1.83;;;0.90;;
13797;SDS011;6970;51.340;3.240;2023-04-24T12:00:59;4.73;;;1.37;;
13797;SDS011;6970;51.340;3.240;2023-04-24T12:03:27;2.83;;;0.90;;
13797;SDS011;6970;51.340;3.240;2023-04-24T12:06:09;2.97;;;0.90;;
13797;SDS011;6970;51.340;3.240;2023-04-24T12:08:40;2.37;;;0.97;;
13797;SDS011;6970;51.340;3.240;2023-04-24T12:11:09;3.03;;;1.07;;
13797;SDS011;6970;51.340;3.240;2023-04-24T12:13:42;2.20;;;0.80;;
13797;SDS011;6970;51.340;3.240;2023-04-24T12:16:10;1.80;;;0.67;;
13797;SDS011;6970;51.340;3.240;2023-04-24T12:18:44;2.80;;;0.90;;
13797;SDS011;6970;51.340;3.240;2023-04-24T12:21:21;2.47;;;0.97;;
13797;SDS011;6970;51.340;3.240;2023-04-24T12:23:54;1.30;;;0.80;;
13797;SDS011;6970;51.340;3.240;2023-04-24T12:26:23;3.23;;;1.20;;
13797;SDS011;6970;51.340;3.240;2023-04-24T12:28:54;1.27;;;0.80;;
13797;SDS011;6970;51.340;3.240;2023-04-24T12:31:21;2.23;;;0.90;;
13797;SDS011;6970;51.340;3.240;2023-04-24T12:33:51;5.27;;;1.33;;
13797;SDS011;6970;51.340;3.240;2023-04-24T12:36:20;2.97;;;1.07;;
13797;SDS011;6970;51.340;3.240;2023-04-24T12:38:52;6.33;;;1.40;;
13797;SDS011;6970;51.340;3.240;2023-04-24T12:41:19;2.70;;;1.30;;
13797;SDS011;6970;51.340;3.240;2023-04-24T12:43:53;1.43;;;0.90;;
13797;SDS011;6970;51.340;3.240;2023-04-24T12:46:21;4.03;;;1.10;;
13797;SDS011;6970;51.340;3.240;2023-04-24T12:48:49;3.20;;;1.17;;
13797;SDS011;6970;51.340;3.240;2023-04-24T12:51:16;4.10;;;1.07;;
13797;SDS011;6970;51.340;3.240;2023-04-24T12:53:44;3.60;;;1.50;;
13797;SDS011;6970;51.340;3.240;2023-04-24T12:56:12;4.63;;;1.10;;
13797;SDS011;6970;51.340;3.240;2023-04-24T13:01:09;3.17;;;1.10;;
13797;SDS011;6970;51.340;3.240;2023-04-24T13:03:36;3.77;;;1.13;;
13797;SDS011;6970;51.340;3.240;2023-04-24T13:06:03;4.33;;;1.10;;
13797;SDS011;6970;51.340;3.240;2023-04-24T13:08:36;3.30;;;1.20;;
13797;SDS011;6970;51.340;3.240;2023-04-24T13:11:04;4.80;;;1.57;;
13797;SDS011;6970;51.340;3.240;2023-04-24T13:13:32;3.33;;;1.33;;
13797;SDS011;6970;51.340;3.240;2023-04-24T13:16:00;1.80;;;1.00;;
13797;SDS011;6970;51.340;3.240;2023-04-24T13:20:59;3.77;;;1.50;;
13797;SDS011;6970;51.340;3.240;2023-04-24T13:23:27;3.40;;;1.50;;
13797;SDS011;6970;51.340;3.240;2023-04-24T13:25:54;4.97;;;1.50;;
13797;SDS011;6970;51.340;3.240;2023-04-24T13:33:26;5.33;;;1.77;;
13797;SDS011;6970;51.340;3.240;2023-04-24T13:35:54;3.47;;;1.53;;
13797;SDS011;6970;51.340;3.240;2023-04-24T13:38:23;3.27;;;2.13;;
13797;SDS011;6970;51.340;3.240;2023-04-24T13:40:51;3.07;;;1.60;;
13797;SDS011;6970;51.340;3.240;2023-04-24T13:43:21;3.13;;;1.90;;
13797;SDS011;6970;51.340;3.240;2023-04-24T13:45:50;3.03;;;1.73;;
13797;SDS011;6970;51.340;3.240;2023-04-24T13:48:21;3.27;;;1.67;;
13797;SDS011;6970;51.340;3.240;2023-04-24T13:50:51;2.53;;;1.73;;
13797;SDS011;6970;51.340;3.240;2023-04-24T13:53:20;3.83;;;1.50;;
13797;SDS011;6970;51.340;3.240;2023-04-24T13:55:48;3.13;;;1.43;;
13797;SDS011;6970;51.340;3.240;2023-04-24T13:58:16;3.63;;;1.10;;
13797;SDS011;6970;51.340;3.240;2023-04-24T14:03:14;3.03;;;1.47;;
13797;SDS011;6970;51.340;3.240;2023-04-24T14:05:41;2.50;;;1.20;;
13797;SDS011;6970;51.340;3.240;2023-04-24T14:08:10;4.30;;;1.97;;
13797;SDS011;6970;51.340;3.240;2023-04-24T14:10:42;5.60;;;1.80;;
13797;SDS011;6970;51.340;3.240;2023-04-24T14:13:15;2.30;;;1.60;;
13797;SDS011;6970;51.340;3.240;2023-04-24T14:15:42;3.60;;;2.00;;
13797;SDS011;6970;51.340;3.240;2023-04-24T14:18:10;2.97;;;1.60;;
13797;SDS011;6970;51.340;3.240;2023-04-24T14:23:08;2.73;;;1.80;;
13797;SDS011;6970;51.340;3.240;2023-04-24T14:25:36;5.23;;;1.80;;
13797;SDS011;6970;51.340;3.240;2023-04-24T14:28:05;3.57;;;1.60;;
13797;SDS011;6970;51.340;3.240;2023-04-24T14:33:05;2.27;;;1.60;;
13797;SDS011;6970;51.340;3.240;2023-04-24T14:35:34;4.70;;;1.80;;
13797;SDS011;6970;51.340;3.240;2023-04-24T14:38:05;2.60;;;1.40;;
13797;SDS011;6970;51.340;3.240;2023-04-24T14:40:36;4.97;;;1.63;;
13797;SDS011;6970;51.340;3.240;2023-04-24T14:43:27;3.23;;;1.43;;
13797;SDS011;6970;51.340;3.240;2023-04-24T14:45:54;4.07;;;1.37;;
13797;SDS011;6970;51.340;3.240;2023-04-24T14:48:24;2.17;;;1.33;;
13797;SDS011;6970;51.340;3.240;2023-04-24T14:50:53;4.50;;;1.90;;
13797;SDS011;6970;51.340;3.240;2023-04-24T14:53:20;5.70;;;1.53;;
13797;SDS011;6970;51.340;3.240;2023-04-24T14:55:47;4.07;;;1.43;;
13797;SDS011;6970;51.340;3.240;2023-04-24T14:58:19;2.30;;;1.17;;
13797;SDS011;6970;51.340;3.240;2023-04-24T15:00:48;1.53;;;1.27;;
13797;SDS011;6970;51.340;3.240;2023-04-24T15:03:20;2.80;;;1.50;;
13797;SDS011;6970;51.340;3.240;2023-04-24T15:05:49;3.20;;;1.70;;
13797;SDS011;6970;51.340;3.240;2023-04-24T15:08:19;4.20;;;1.67;;
13797;SDS011;6970;51.340;3.240;2023-04-24T15:10:48;3.60;;;1.50;;
13797;SDS011;6970;51.340;3.240;2023-04-24T15:13:16;3.57;;;1.50;;
13797;SDS011;6970;51.340;3.240;2023-04-24T15:15:46;3.70;;;1.77;;
13797;SDS011;6970;51.340;3.240;2023-04-24T15:18:16;4.43;;;1.80;;
13797;SDS011;6970;51.340;3.240;2023-04-24T15:20:44;3.40;;;1.47;;
13797;SDS011;6970;51.340;3.240;2023-04-24T15:23:17;2.70;;;1.40;;
13797;SDS011;6970;51.340;3.240;2023-04-24T15:25:50;3.43;;;1.47;;
13797;SDS011;6970;51.340;3.240;2023-04-24T15:28:20;3.97;;;1.73;;
13797;SDS011;6970;51.340;3.240;2023-04-24T15:30:51;3.87;;;1.60;;
13797;SDS011;6970;51.340;3.240;2023-04-24T15:33:20;5.47;;;2.00;;
13797;SDS011;6970;51.340;3.240;2023-04-24T15:35:47;3.83;;;1.80;;
13797;SDS011;6970;51.340;3.240;2023-04-24T15:38:15;4.13;;;1.80;;
13797;SDS011;6970;51.340;3.240;2023-04-24T15:40:43;3.20;;;1.40;;
13797;SDS011;6970;51.340;3.240;2023-04-24T15:43:12;4.57;;;1.90;;
13797;SDS011;6970;51.340;3.240;2023-04-24T15:45:42;5.40;;;1.57;;
13797;SDS011;6970;51.340;3.240;2023-04-24T15:50:43;1.77;;;1.63;;
13797;SDS011;6970;51.340;3.240;2023-04-24T15:53:13;4.83;;;1.60;;
13797;SDS011;6970;51.340;3.240;2023-04-24T15:55:50;3.60;;;1.90;;
13797;SDS011;6970;51.340;3.240;2023-04-24T15:58:19;3.27;;;1.53;;
13797;SDS011;6970;51.340;3.240;2023-04-24T16:00:47;5.47;;;2.17;;
13797;SDS011;6970;51.340;3.240;2023-04-24T16:03:14;4.27;;;1.70;;
13797;SDS011;6970;51.340;3.240;2023-04-24T16:05:42;6.60;;;2.13;;
13797;SDS011;6970;51.340;3.240;2023-04-24T16:08:09;2.90;;;1.70;;
13797;SDS011;6970;51.340;3.240;2023-04-24T16:10:36;3.33;;;2.27;;
13797;SDS011;6970;51.340;3.240;2023-04-24T16:13:03;3.60;;;1.63;;
13797;SDS011;6970;51.340;3.240;2023-04-24T16:18:02;4.50;;;1.90;;
13797;SDS011;6970;51.340;3.240;2023-04-24T16:20:32;6.33;;;2.23;;
13797;SDS011;6970;51.340;3.240;2023-04-24T16:23:02;3.13;;;1.87;;
13797;SDS011;6970;51.340;3.240;2023-04-24T16:25:32;4.87;;;2.10;;
13797;SDS011;6970;51.340;3.240;2023-04-24T16:28:00;4.47;;;2.50;;
13797;SDS011;6970;51.340;3.240;2023-04-24T16:30:28;4.50;;;2.23;;
13797;SDS011;6970;51.340;3.240;2023-04-24T16:32:57;5.17;;;2.00;;
13797;SDS011;6970;51.340;3.240;2023-04-24T16:35:28;3.93;;;2.03;;
13797;SDS011;6970;51.340;3.240;2023-04-24T16:42:58;4.90;;;2.10;;
13797;SDS011;6970;51.340;3.240;2023-04-24T16:47:57;3.50;;;2.03;;
13797;SDS011;6970;51.340;3.240;2023-04-24T16:50:26;3.73;;;2.63;;
13797;SDS011;6970;51.340;3.240;2023-04-24T16:52:54;3.47;;;1.90;;
13797;SDS011;6970;51.340;3.240;2023-04-24T17:02:51;9.60;;;2.40;;
13797;SDS011;6970;51.340;3.240;2023-04-24T17:05:22;6.43;;;2.63;;
13797;SDS011;6970;51.340;3.240;2023-04-24T17:07:49;6.67;;;2.53;;
13797;SDS011;6970;51.340;3.240;2023-04-24T17:10:16;10.30;;;2.93;;
13797;SDS011;6970;51.340;3.240;2023-04-24T17:12:44;10.43;;;2.60;;
13797;SDS011;6970;51.340;3.240;2023-04-24T17:20:11;6.23;;;2.30;;
13797;SDS011;6970;51.340;3.240;2023-04-24T17:22:48;8.67;;;2.70;;
13797;SDS011;6970;51.340;3.240;2023-04-24T17:25:16;8.93;;;2.73;;
13797;SDS011;6970;51.340;3.240;2023-04-24T17:27:43;10.73;;;2.43;;
13797;SDS011;6970;51.340;3.240;2023-04-24T17:30:11;6.00;;;2.47;;
13797;SDS011;6970;51.340;3.240;2023-04-24T17:32:40;10.00;;;3.10;;
13797;SDS011;6970;51.340;3.240;2023-04-24T17:35:09;10.47;;;2.90;;
13797;SDS011;6970;51.340;3.240;2023-04-24T17:37:37;11.23;;;3.40;;
13797;SDS011;6970;51.340;3.240;2023-04-24T17:40:10;8.83;;;3.13;;
13797;SDS011;6970;51.340;3.240;2023-04-24T17:42:37;10.40;;;2.97;;
13797;SDS011;6970;51.340;3.240;2023-04-24T17:45:09;11.00;;;3.50;;
13797;SDS011;6970;51.340;3.240;2023-04-24T17:47:37;8.03;;;2.97;;
13797;SDS011;6970;51.340;3.240;2023-04-24T17:50:05;7.60;;;2.70;;